createdAt,value
2023-11-01T00:01:01.235Z,61.50
2023-11-01T00:03:28.737Z,61.70
2023-11-01T00:05:56.058Z,61.90
2023-11-01T00:08:23.459Z,61.80
2023-11-01T00:10:53.744Z,61.90
2023-11-01T00:13:21.149Z,62.10
2023-11-01T00:15:49.895Z,61.50
2023-11-01T00:18:17.326Z,61.80
2023-11-01T00:20:45.529Z,61.90
2023-11-01T00:23:13.042Z,62.00
2023-11-01T00:25:41.746Z,61.70
2023-11-01T00:28:09.244Z,61.90
2023-11-01T00:30:36.731Z,62.20
2023-11-01T00:33:05.476Z,62.00
2023-11-01T00:35:32.907Z,62.20
2023-11-01T00:38:00.201Z,61.90
2023-11-01T00:40:27.530Z,62.10
2023-11-01T00:42:54.857Z,62.40
2023-11-01T00:45:22.408Z,62.10
2023-11-01T00:47:50.388Z,61.60
2023-11-01T00:50:19.217Z,61.20
2023-11-01T00:52:47.112Z,61.50
2023-11-01T00:55:17.860Z,61.50
2023-11-01T00:57:47.619Z,61.50
2023-11-01T01:00:16.112Z,61.50
2023-11-01T01:02:43.691Z,62.10
2023-11-01T01:05:11.194Z,61.90
2023-11-01T01:07:40.425Z,62.20
2023-11-01T01:10:09.134Z,62.50
2023-11-01T01:12:36.532Z,61.90
2023-11-01T01:15:04.476Z,62.40
2023-11-01T01:17:32.033Z,62.50
2023-11-01T01:19:59.388Z,63.00
2023-11-01T01:22:26.905Z,63.00
2023-11-01T01:24:55.645Z,63.40
2023-11-01T01:27:22.999Z,62.50
2023-11-01T01:29:50.258Z,62.60
2023-11-01T01:32:17.539Z,62.60
2023-11-01T01:34:44.906Z,63.10
2023-11-01T01:37:12.175Z,63.20
2023-11-01T01:39:39.548Z,63.00
2023-11-01T01:42:08.583Z,63.20
2023-11-01T01:44:35.913Z,62.80
2023-11-01T01:47:03.526Z,62.80
2023-11-01T01:49:36.964Z,63.40
2023-11-01T01:52:07.462Z,63.60
2023-11-01T01:54:35.096Z,63.70
2023-11-01T01:57:02.573Z,63.90
2023-11-01T01:59:31.729Z,63.40
2023-11-01T02:02:00.887Z,63.90
2023-11-01T02:04:28.424Z,64.20
2023-11-01T02:06:55.765Z,64.40
2023-11-01T02:09:23.289Z,64.80
2023-11-01T02:11:50.587Z,64.90
2023-11-01T02:14:17.979Z,64.60
2023-11-01T02:16:46.659Z,64.40
2023-11-01T02:19:15.489Z,64.30
2023-11-01T02:21:42.835Z,63.60
2023-11-01T02:24:11.497Z,64.10
2023-11-01T02:26:38.830Z,64.20
2023-11-01T02:29:06.368Z,64.20
2023-11-01T02:31:33.821Z,64.10
2023-11-01T02:34:01.656Z,64.00
2023-11-01T02:36:28.921Z,63.90
2023-11-01T02:38:56.206Z,63.70
2023-11-01T02:41:24.840Z,63.70
2023-11-01T02:43:52.166Z,63.20
2023-11-01T02:46:19.531Z,63.20
2023-11-01T02:48:47.595Z,63.70
2023-11-01T02:51:15.174Z,64.40
2023-11-01T02:53:42.502Z,64.90
2023-11-01T02:56:09.809Z,65.30
2023-11-01T02:58:38.864Z,65.50
2023-11-01T03:01:08.156Z,65.80
2023-11-01T03:03:35.458Z,66.00
2023-11-01T03:06:02.848Z,66.20
2023-11-01T03:08:30.161Z,66.20
2023-11-01T03:10:57.469Z,66.10
2023-11-01T03:13:24.954Z,66.00
2023-11-01T03:15:53.613Z,66.10
2023-11-01T03:18:21.102Z,66.00
2023-11-01T03:20:48.479Z,65.70
2023-11-01T03:23:15.772Z,65.70
2023-11-01T03:25:43.147Z,65.90
2023-11-01T03:28:10.433Z,65.90
2023-11-01T03:30:37.850Z,65.20
2023-11-01T03:33:06.518Z,65.30
2023-11-01T03:35:33.888Z,65.30
2023-11-01T03:38:01.266Z,65.40
2023-11-01T03:40:28.571Z,64.90
2023-11-01T03:42:56.713Z,65.20
2023-11-01T03:45:24.310Z,65.10
2023-11-01T03:47:51.732Z,65.30
2023-11-01T03:50:20.401Z,65.10
2023-11-01T03:52:47.689Z,64.90
2023-11-01T03:55:15.025Z,65.10
2023-11-01T03:57:42.326Z,65.00
2023-11-01T04:00:10.872Z,65.00
2023-11-01T04:02:38.274Z,65.00
2023-11-01T04:05:06.179Z,65.20
2023-11-01T04:07:34.792Z,65.30
2023-11-01T04:10:02.083Z,65.50
2023-11-01T04:12:29.380Z,65.50
2023-11-01T04:14:56.656Z,65.50
2023-11-01T04:17:23.969Z,65.60
2023-11-01T04:19:51.251Z,65.50
2023-11-01T04:22:18.578Z,65.80
2023-11-01T04:24:47.180Z,65.80
2023-11-01T04:27:14.531Z,65.90
2023-11-01T04:29:41.854Z,66.20
2023-11-01T04:32:09.375Z,66.60
2023-11-01T04:34:37.372Z,66.60
2023-11-01T04:37:05.671Z,66.80
2023-11-01T04:39:32.934Z,66.90
2023-11-01T04:42:05.487Z,66.90
2023-11-01T04:44:32.840Z,67.10
2023-11-01T04:47:00.345Z,67.30
2023-11-01T04:49:27.911Z,67.50
2023-11-01T04:51:55.233Z,67.60
2023-11-01T04:54:22.540Z,67.70
2023-11-01T04:56:49.990Z,67.90
2023-11-01T04:59:19.500Z,68.00
2023-11-01T05:01:48.681Z,68.10
2023-11-01T05:04:16.098Z,68.20
2023-11-01T05:06:43.411Z,68.20
2023-11-01T05:09:12.407Z,68.30
2023-11-01T05:11:40.098Z,68.20
2023-11-01T05:14:07.540Z,68.20
2023-11-01T05:16:36.147Z,68.20
2023-11-01T05:19:03.406Z,68.30
2023-11-01T05:21:30.671Z,68.30
2023-11-01T05:23:57.948Z,68.50
2023-11-01T05:26:25.270Z,68.60
2023-11-01T05:28:52.619Z,68.50
2023-11-01T05:31:19.925Z,68.50
2023-11-01T05:33:48.558Z,68.40
2023-11-01T05:36:15.879Z,68.40
2023-11-01T05:38:43.839Z,68.40
2023-11-01T05:41:11.408Z,68.20
2023-11-01T05:43:39.572Z,68.30
2023-11-01T05:46:07.221Z,68.30
2023-11-01T05:48:35.068Z,68.30
2023-11-01T05:51:04.722Z,68.30
2023-11-01T05:53:34.769Z,68.30
2023-11-01T05:56:09.595Z,68.40
2023-11-01T05:58:37.945Z,68.30
2023-11-01T06:01:07.218Z,68.50
2023-11-01T06:03:34.801Z,68.60
2023-11-01T06:06:04.116Z,68.60
2023-11-01T06:08:32.140Z,68.60
2023-11-01T06:10:59.523Z,68.70
2023-11-01T06:13:26.836Z,68.80
2023-11-01T06:15:59.337Z,68.80
2023-11-01T06:18:26.687Z,68.80
2023-11-01T06:20:54.096Z,68.90
2023-11-01T06:23:22.729Z,69.00
2023-11-01T06:25:50.063Z,69.10
2023-11-01T06:28:17.411Z,69.30
2023-11-01T06:30:45.292Z,69.40
2023-11-01T06:33:12.763Z,69.40
2023-11-01T06:35:40.227Z,69.50
2023-11-01T06:38:07.507Z,69.50
2023-11-01T06:40:36.592Z,69.60
2023-11-01T06:43:05.280Z,69.30
2023-11-01T06:45:32.596Z,69.50
2023-11-01T06:48:00.197Z,69.50
2023-11-01T06:50:27.551Z,71.40
2023-11-01T06:52:54.850Z,71.00
2023-11-01T06:55:22.117Z,71.20
2023-11-01T06:57:51.837Z,71.20
2023-11-01T07:00:19.357Z,71.20
2023-11-01T07:02:46.676Z,71.20
2023-11-01T07:05:14.059Z,71.40
2023-11-01T07:07:41.346Z,71.20
2023-11-01T07:10:10.053Z,71.00
2023-11-01T07:12:37.405Z,70.30
2023-11-01T07:15:09.464Z,70.20
2023-11-01T07:17:37.145Z,70.10
2023-11-01T07:20:05.745Z,69.90
2023-11-01T07:22:33.092Z,69.80
2023-11-01T07:25:00.441Z,69.80
2023-11-01T07:27:27.725Z,69.60
2023-11-01T07:29:55.026Z,69.60
2023-11-01T07:32:24.280Z,69.80
2023-11-01T07:34:51.793Z,69.60
2023-11-01T07:37:19.210Z,69.70
2023-11-01T07:39:46.572Z,69.80
2023-11-01T07:42:13.845Z,69.80
2023-11-01T07:44:41.487Z,69.70
2023-11-01T07:47:08.827Z,69.70
2023-11-01T07:49:37.439Z,69.70
2023-11-01T07:52:05.962Z,69.80
2023-11-01T07:54:33.314Z,70.00
2023-11-01T07:57:02.627Z,70.20
2023-11-01T07:59:30.706Z,70.00
2023-11-01T08:02:01.317Z,70.10
2023-11-01T08:04:29.788Z,70.20
2023-11-01T08:06:58.652Z,70.30
2023-11-01T08:09:26.035Z,70.00
2023-11-01T08:11:53.568Z,69.40
2023-11-01T08:14:21.079Z,69.20
2023-11-01T08:16:49.615Z,68.90
2023-11-01T08:19:17.226Z,68.10
2023-11-01T08:21:44.609Z,67.70
2023-11-01T08:24:13.624Z,67.10
2023-11-01T08:26:41.027Z,66.10
2023-11-01T08:29:10.749Z,65.10
2023-11-01T08:31:38.157Z,64.70
2023-11-01T08:34:05.640Z,64.80
2023-11-01T08:36:32.948Z,63.00
2023-11-01T08:39:00.248Z,62.90
2023-11-01T08:41:29.199Z,61.60
2023-11-01T08:43:56.545Z,62.40
2023-11-01T08:46:24.100Z,61.40
2023-11-01T08:48:51.486Z,60.90
2023-11-01T08:51:19.527Z,61.00
2023-11-01T08:53:46.864Z,60.50
2023-11-01T08:56:14.248Z,59.70
2023-11-01T08:58:43.145Z,58.80
2023-11-01T09:01:10.870Z,57.80
2023-11-01T09:03:38.299Z,56.50
2023-11-01T09:06:06.074Z,55.50
2023-11-01T09:08:33.431Z,55.30
2023-11-01T09:11:00.757Z,55.00
2023-11-01T09:13:28.013Z,54.10
2023-11-01T09:15:56.641Z,54.80
2023-11-01T09:18:24.187Z,53.50
2023-11-01T09:20:51.745Z,53.10
2023-11-01T09:23:20.071Z,53.30
2023-11-01T09:25:47.372Z,53.10
2023-11-01T09:28:14.757Z,53.50
2023-11-01T09:30:42.060Z,53.00
2023-11-01T09:33:10.720Z,52.70
2023-11-01T09:35:38.575Z,53.40
2023-11-01T09:38:05.882Z,52.10
2023-11-01T09:40:33.180Z,50.90
2023-11-01T09:43:00.529Z,51.40
2023-11-01T09:45:28.702Z,50.70
2023-11-01T09:47:56.053Z,49.50
2023-11-01T09:50:24.836Z,50.00
2023-11-01T09:52:52.394Z,49.90
2023-11-01T09:55:20.795Z,50.00
2023-11-01T09:57:48.981Z,49.50
2023-11-01T10:00:17.641Z,48.20
2023-11-01T10:02:46.239Z,48.70
2023-11-01T10:05:14.589Z,48.70
2023-11-01T10:07:43.290Z,50.30
2023-11-01T10:10:16.716Z,50.30
2023-11-01T10:12:44.404Z,49.00
2023-11-01T10:15:19.482Z,49.90
2023-11-01T10:17:46.960Z,50.60
2023-11-01T10:20:22.973Z,49.20
2023-11-01T10:22:51.645Z,49.70
2023-11-01T10:25:20.664Z,49.50
2023-11-01T10:27:49.006Z,49.20
2023-11-01T10:30:17.108Z,49.40
2023-11-01T10:32:55.749Z,50.30
2023-11-01T10:35:23.560Z,49.60
2023-11-01T10:37:58.501Z,50.70
2023-11-01T10:40:28.453Z,51.30
2023-11-01T10:42:58.772Z,52.20
2023-11-01T10:45:26.403Z,51.50
2023-11-01T10:47:54.285Z,51.70
2023-11-01T10:50:23.642Z,52.00
2023-11-01T10:52:51.820Z,52.80
2023-11-01T10:55:21.895Z,53.10
2023-11-01T10:57:50.777Z,53.50
2023-11-01T11:00:23.114Z,53.30
2023-11-01T11:02:53.188Z,52.80
2023-11-01T11:05:26.842Z,52.60
2023-11-01T11:07:57.731Z,51.90
2023-11-01T11:10:27.643Z,52.00
2023-11-01T11:13:36.834Z,52.20
2023-11-01T11:16:07.840Z,51.90
2023-11-01T11:18:55.106Z,51.20
2023-11-01T11:21:56.432Z,52.20
2023-11-01T11:24:48.476Z,51.90
2023-11-01T11:27:51.328Z,52.50
2023-11-01T11:31:08.465Z,52.50
2023-11-01T11:33:37.942Z,53.10
2023-11-01T11:36:09.572Z,53.40
2023-11-01T11:38:37.659Z,53.80
2023-11-01T11:41:12.556Z,54.10
2023-11-01T11:44:06.837Z,53.80
2023-11-01T11:46:41.180Z,54.20
2023-11-01T11:49:27.366Z,54.80
2023-11-01T11:51:56.219Z,55.60
2023-11-01T11:54:25.573Z,55.40
2023-11-01T11:56:53.774Z,56.60
2023-11-01T11:59:23.655Z,55.70
2023-11-01T12:01:52.905Z,55.70
2023-11-01T12:04:20.663Z,55.90
2023-11-01T12:06:51.184Z,57.00
2023-11-01T12:09:19.946Z,56.80
2023-11-01T12:11:49.148Z,56.90
2023-11-01T12:14:20.371Z,57.30
2023-11-01T12:16:49.960Z,57.30
2023-11-01T12:19:19.315Z,57.80
2023-11-01T12:21:48.702Z,58.40
2023-11-01T12:24:16.869Z,58.70
2023-11-01T12:27:06.572Z,58.50
2023-11-01T12:29:36.053Z,59.00
2023-11-01T12:32:06.834Z,59.30
2023-11-01T12:34:35.103Z,59.60
2023-11-01T12:37:04.075Z,59.30
2023-11-01T12:39:32.149Z,59.60
2023-11-01T12:42:21.032Z,59.30
2023-11-01T12:44:49.365Z,60.00
2023-11-01T12:47:18.415Z,60.10
2023-11-01T12:49:46.665Z,60.60
2023-11-01T12:52:14.108Z,60.40
2023-11-01T12:54:43.001Z,60.50
2023-11-01T12:57:10.642Z,60.70
2023-11-01T12:59:38.262Z,60.30
2023-11-01T13:02:05.782Z,60.30
2023-11-01T13:04:34.765Z,60.60
2023-11-01T13:07:02.265Z,61.00
2023-11-01T13:09:29.622Z,60.70
2023-11-01T13:11:56.909Z,61.10
2023-11-01T13:14:24.235Z,60.90
2023-11-01T13:16:52.526Z,61.70
2023-11-01T13:19:20.202Z,61.60
2023-11-01T13:21:49.322Z,62.00
2023-11-01T13:24:16.690Z,62.10
2023-11-01T13:26:44.065Z,62.40
2023-11-01T13:29:11.576Z,62.60
2023-11-01T13:31:39.436Z,62.70
2023-11-01T13:34:06.755Z,62.90
2023-11-01T13:36:34.113Z,63.20
2023-11-01T13:39:02.883Z,63.30
2023-11-01T13:41:30.347Z,63.80
2023-11-01T13:43:57.617Z,64.00
2023-11-01T13:46:24.940Z,64.00
2023-11-01T13:48:52.404Z,64.10
2023-11-01T13:51:19.759Z,64.50
2023-11-01T13:53:47.099Z,64.80
2023-11-01T13:56:15.821Z,64.80
2023-11-01T13:58:44.899Z,64.80
2023-11-01T14:01:12.276Z,65.10
2023-11-01T14:03:39.739Z,65.20
2023-11-01T14:06:08.148Z,65.30
2023-11-01T14:08:36.562Z,65.20
2023-11-01T14:11:04.225Z,65.30
2023-11-01T14:13:32.836Z,65.40
2023-11-01T14:16:01.222Z,65.50
2023-11-01T14:18:28.609Z,65.70
2023-11-01T14:21:00.682Z,65.90
2023-11-01T14:23:28.135Z,66.30
2023-11-01T14:25:55.781Z,66.30
2023-11-01T14:28:23.442Z,66.30
2023-11-01T14:30:54.941Z,66.30
2023-11-01T14:33:23.512Z,66.70
2023-11-01T14:35:51.320Z,66.70
2023-11-01T14:38:19.039Z,66.50
2023-11-01T14:40:46.987Z,66.50
2023-11-01T14:43:14.529Z,66.60
2023-11-01T14:45:42.230Z,66.60
2023-11-01T14:48:11.013Z,66.80
2023-11-01T14:50:38.461Z,66.80
2023-11-01T14:53:05.736Z,66.80
2023-11-01T14:55:33.027Z,66.80
2023-11-01T14:58:00.634Z,67.00
2023-11-01T15:00:27.990Z,67.10
2023-11-01T15:02:55.392Z,67.20
2023-11-01T15:05:25.563Z,67.50
2023-11-01T15:07:53.490Z,67.60
2023-11-01T15:10:20.892Z,67.60
2023-11-01T15:12:48.226Z,67.70
2023-11-01T15:15:16.153Z,67.80
2023-11-01T15:17:43.506Z,67.90
2023-11-01T15:20:11.989Z,67.80
2023-11-01T15:22:40.638Z,68.00
2023-11-01T15:25:08.532Z,68.10
2023-11-01T15:27:35.866Z,68.10
2023-11-01T15:30:04.217Z,68.30
2023-11-01T15:32:31.557Z,68.30
2023-11-01T15:34:58.853Z,68.40
2023-11-01T15:37:26.787Z,68.40
2023-11-01T15:39:56.743Z,68.40
2023-11-01T15:42:24.917Z,68.50
2023-11-01T15:44:52.451Z,68.50
2023-11-01T15:47:19.840Z,68.50
2023-11-01T15:49:47.193Z,68.70
2023-11-01T15:52:14.554Z,68.90
2023-11-01T15:54:42.744Z,68.80
2023-11-01T15:57:13.887Z,68.90
2023-11-01T15:59:41.350Z,69.00
2023-11-01T16:02:08.772Z,69.00
2023-11-01T16:04:36.212Z,69.10
2023-11-01T16:07:04.110Z,69.20
2023-11-01T16:09:31.637Z,69.20
2023-11-01T16:11:59.076Z,69.20
2023-11-01T16:14:29.338Z,69.30
2023-11-01T16:16:57.349Z,69.40
2023-11-01T16:19:27.607Z,69.40
2023-11-01T16:21:55.016Z,69.50
2023-11-01T16:24:22.354Z,69.60
2023-11-01T16:26:49.823Z,69.60
2023-11-01T16:29:17.385Z,69.80
2023-11-01T16:31:46.094Z,69.80
2023-11-01T16:34:13.740Z,69.80
2023-11-01T16:36:41.413Z,69.90
2023-11-01T16:39:08.951Z,70.00
2023-11-01T16:41:36.291Z,70.00
2023-11-01T16:44:03.794Z,70.10
2023-11-01T16:46:38.568Z,70.10
2023-11-01T16:49:07.932Z,70.10
2023-11-01T16:51:35.895Z,70.20
2023-11-01T16:54:03.562Z,70.30
2023-11-01T16:56:30.861Z,70.40
2023-11-01T16:58:58.183Z,70.50
2023-11-01T17:01:25.859Z,70.50
2023-11-01T17:03:54.660Z,70.60
2023-11-01T17:06:23.894Z,70.80
2023-11-01T17:08:52.024Z,70.60
2023-11-01T17:11:19.565Z,70.80
2023-11-01T17:13:47.457Z,70.80
2023-11-01T17:16:15.853Z,70.90
2023-11-01T17:18:43.740Z,70.90
2023-11-01T17:21:11.250Z,71.10
2023-11-01T17:23:44.134Z,71.10
2023-11-01T17:26:25.798Z,71.20
2023-11-01T17:28:53.935Z,71.30
2023-11-01T17:31:42.015Z,71.30
2023-11-01T17:34:11.040Z,71.40
2023-11-01T17:36:38.723Z,71.50
2023-11-01T17:39:08.669Z,71.60
2023-11-01T17:42:01.477Z,71.80
2023-11-01T17:44:32.606Z,72.00
2023-11-01T17:47:02.890Z,72.10
2023-11-01T17:49:51.520Z,72.30
2023-11-01T17:52:36.811Z,72.30
2023-11-01T17:55:07.730Z,72.50
2023-11-01T17:57:36.872Z,72.50
2023-11-01T18:00:05.983Z,72.40
2023-11-01T18:03:24.848Z,72.50
2023-11-01T18:05:53.487Z,72.60
2023-11-01T18:08:26.722Z,72.50
2023-11-01T18:10:56.993Z,72.50
2023-11-01T18:13:26.440Z,72.50
2023-11-01T18:15:55.925Z,72.70
2023-11-01T18:18:32.413Z,72.80
2023-11-01T18:21:06.862Z,73.00
2023-11-01T18:23:34.284Z,73.00
2023-11-01T18:26:11.214Z,73.00
2023-11-01T18:28:42.296Z,72.90
2023-11-01T18:31:21.111Z,72.90
2023-11-01T18:33:56.413Z,72.90
2023-11-01T18:36:24.539Z,73.10
2023-11-01T18:38:54.375Z,73.00
2023-11-01T18:41:30.080Z,73.00
2023-11-01T18:43:57.588Z,72.90
2023-11-01T18:46:31.877Z,72.80
2023-11-01T18:48:59.532Z,72.80
2023-11-01T18:51:52.800Z,72.90
2023-11-01T18:54:20.127Z,72.90
2023-11-01T18:56:48.964Z,72.80
2023-11-01T18:59:30.189Z,72.80
2023-11-01T19:01:57.853Z,72.80
2023-11-01T19:04:26.048Z,73.00
2023-11-01T19:06:53.529Z,73.10
2023-11-01T19:09:24.655Z,73.10
2023-11-01T19:11:53.378Z,73.10
2023-11-01T19:14:20.682Z,73.10
2023-11-01T19:16:48.124Z,73.20
2023-11-01T19:19:15.647Z,73.20
2023-11-01T19:21:43.252Z,73.30
2023-11-01T19:24:10.762Z,73.30
2023-11-01T19:26:40.912Z,73.30
2023-11-01T19:29:09.619Z,73.40
2023-11-01T19:31:36.930Z,73.50
2023-11-01T19:34:04.374Z,73.50
2023-11-01T19:36:31.794Z,73.40
2023-11-01T19:38:59.184Z,73.60
2023-11-01T19:41:26.493Z,73.40
2023-11-01T19:43:59.300Z,73.70
2023-11-01T19:46:28.117Z,73.60
2023-11-01T19:48:55.487Z,73.50
2023-11-01T19:51:22.857Z,73.50
2023-11-01T19:53:52.045Z,73.50
2023-11-01T19:56:19.773Z,73.70
2023-11-01T19:58:47.233Z,73.60
2023-11-01T20:01:15.516Z,73.60
2023-11-01T20:03:44.165Z,73.80
2023-11-01T20:06:11.486Z,73.90
2023-11-01T20:08:38.869Z,73.90
2023-11-01T20:11:06.291Z,73.80
2023-11-01T20:13:33.796Z,73.80
2023-11-01T20:16:01.178Z,74.10
2023-11-01T20:18:28.572Z,74.00
2023-11-01T20:20:57.256Z,74.00
2023-11-01T20:23:24.595Z,74.10
2023-11-01T20:25:52.064Z,74.20
2023-11-01T20:28:22.988Z,74.10
2023-11-01T20:30:52.414Z,74.20
2023-11-01T20:33:19.870Z,74.30
2023-11-01T20:35:47.267Z,74.30
2023-11-01T20:38:16.141Z,74.30
2023-11-01T20:40:43.643Z,74.50
2023-11-01T20:43:10.961Z,74.40
2023-11-01T20:45:38.990Z,74.40
2023-11-01T20:48:08.399Z,74.60
2023-11-01T20:50:35.869Z,74.60
2023-11-01T20:53:03.194Z,74.60
2023-11-01T20:55:31.928Z,74.60
2023-11-01T20:57:59.245Z,74.70
2023-11-01T21:00:27.440Z,74.70
2023-11-01T21:02:55.626Z,74.90
2023-11-01T21:05:22.988Z,74.90
2023-11-01T21:07:50.319Z,75.00
2023-11-01T21:10:19.493Z,75.00
2023-11-01T21:12:48.139Z,75.10
2023-11-01T21:15:15.613Z,75.10
2023-11-01T21:17:43.330Z,75.10
2023-11-01T21:20:11.315Z,75.10
2023-11-01T21:22:39.131Z,75.10
2023-11-01T21:25:07.021Z,75.30
2023-11-01T21:27:34.291Z,75.30
2023-11-01T21:30:04.247Z,75.40
2023-11-01T21:32:32.645Z,75.40
2023-11-01T21:35:01.790Z,75.60
2023-11-01T21:37:29.106Z,75.50
2023-11-01T21:39:56.502Z,75.50
2023-11-01T21:42:25.754Z,75.50
2023-11-01T21:44:53.262Z,75.60
2023-11-01T21:47:28.943Z,75.60
2023-11-01T21:49:57.928Z,75.50
2023-11-01T21:52:25.352Z,75.40
2023-11-01T21:54:53.348Z,75.50
2023-11-01T21:57:26.404Z,75.50
2023-11-01T21:59:58.187Z,75.50
2023-11-01T22:02:46.470Z,75.50
2023-11-01T22:05:13.976Z,75.60
2023-11-01T22:07:41.277Z,75.60
2023-11-01T22:10:15.530Z,75.90
2023-11-01T22:12:45.314Z,76.00
2023-11-01T22:15:18.587Z,76.00
2023-11-01T22:17:48.280Z,75.80
2023-11-01T22:20:21.660Z,75.90
2023-11-01T22:22:50.729Z,75.80
2023-11-01T22:25:32.005Z,75.90
2023-11-01T22:28:02.094Z,76.10
2023-11-01T22:30:32.362Z,76.20
2023-11-01T22:33:06.530Z,76.20
2023-11-01T22:35:38.742Z,76.20
2023-11-01T22:38:06.273Z,76.00
2023-11-01T22:40:35.114Z,76.00
2023-11-01T22:43:02.844Z,76.00
2023-11-01T22:45:30.571Z,76.00
2023-11-01T22:47:58.157Z,75.90
2023-11-01T22:50:27.341Z,75.80
2023-11-01T22:52:54.633Z,75.80
2023-11-01T22:55:22.151Z,75.70
2023-11-01T22:58:09.079Z,75.70
2023-11-01T23:00:37.237Z,75.70
2023-11-01T23:03:06.130Z,75.60
2023-11-01T23:05:35.920Z,75.60
2023-11-01T23:08:03.616Z,75.40
2023-11-01T23:10:33.648Z,75.60
2023-11-01T23:13:01.562Z,75.40
2023-11-01T23:15:29.129Z,75.50
2023-11-01T23:17:57.848Z,75.50
2023-11-01T23:20:25.593Z,75.50
2023-11-01T23:22:54.707Z,75.30
2023-11-01T23:25:27.466Z,75.40
2023-11-01T23:27:58.408Z,75.50
2023-11-01T23:30:44.194Z,75.60
2023-11-01T23:33:11.593Z,75.60
2023-11-01T23:35:48.139Z,75.70
2023-11-01T23:38:19.646Z,75.60
2023-11-01T23:40:46.974Z,75.50
2023-11-01T23:43:14.928Z,75.60
2023-11-01T23:46:10.830Z,75.60
2023-11-01T23:48:39.424Z,75.60
2023-11-01T23:51:08.493Z,75.80
2023-11-01T23:53:37.573Z,75.70
2023-11-01T23:56:07.103Z,75.70
2023-11-01T23:58:36.338Z,75.70
